Terminal Aerodrome Forecast
Issued by NWS

Home | Current Version | Previous Version | Text Only | Print | Product List | Glossary On
Versions: 1 2 3 4 5 6 7 8 9 10 11 12 13 14 15 16 17 18 19
000
FTAK31 PANC 152345
TAFADL
TAF
PADL 152345Z 1600/1624 17015KT P6SM -SHRA SCT007 OVC015
     FM160100 17008G16KT P6SM VCSH FEW003 BKN012 BKN040
     FM160600 13006KT 3SM -SHRA BR SCT015 BKN025 BKN040
     FM161500 13008KT 6SM -SHSN BR BKN015 OVC040=

USA.gov is the U.S. government's official web portal to all federal, state and local government web resources and services.